sensor_id;sensor_type;location;lat;lon;timestamp;pressure;altitude;pressure_sealevel;temperature;humidity
65013;BME280;51715;39.432;-77.518;2022-10-31T00:01:30;100016.26;;;16.34;36.80
65013;BME280;51715;39.432;-77.518;2022-10-31T00:03:59;100020.04;;;16.37;36.55
65013;BME280;51715;39.432;-77.518;2022-10-31T00:06:28;100019.57;;;16.28;36.12
65013;BME280;51715;39.432;-77.518;2022-10-31T00:08:58;100022.06;;;16.58;35.75
65013;BME280;51715;39.432;-77.518;2022-10-31T00:11:27;100027.76;;;16.58;35.63
65013;BME280;51715;39.432;-77.518;2022-10-31T00:13:56;100029.46;;;16.44;35.25
65013;BME280;51715;39.432;-77.518;2022-10-31T00:16:27;100029.30;;;16.65;35.45
65013;BME280;51715;39.432;-77.518;2022-10-31T00:18:58;100025.45;;;16.71;35.03
65013;BME280;51715;39.432;-77.518;2022-10-31T00:21:26;100029.54;;;16.39;35.26
65013;BME280;51715;39.432;-77.518;2022-10-31T00:23:56;100029.05;;;16.69;35.32
65013;BME280;51715;39.432;-77.518;2022-10-31T00:26:26;100033.96;;;16.70;35.28
65013;BME280;51715;39.432;-77.518;2022-10-31T00:28:56;100030.41;;;16.44;35.17
65013;BME280;51715;39.432;-77.518;2022-10-31T00:31:24;100026.11;;;16.67;34.74
65013;BME280;51715;39.432;-77.518;2022-10-31T00:33:53;100015.67;;;16.68;34.78
65013;BME280;51715;39.432;-77.518;2022-10-31T00:36:21;100013.79;;;16.53;34.75
65013;BME280;51715;39.432;-77.518;2022-10-31T00:38:50;100010.59;;;16.64;35.00
65013;BME280;51715;39.432;-77.518;2022-10-31T00:41:18;100010.02;;;16.58;34.99
65013;BME280;51715;39.432;-77.518;2022-10-31T00:43:46;100017.33;;;16.38;35.42
65013;BME280;51715;39.432;-77.518;2022-10-31T00:46:14;100013.26;;;16.36;35.44
65013;BME280;51715;39.432;-77.518;2022-10-31T00:48:42;100012.05;;;16.26;35.28
65013;BME280;51715;39.432;-77.518;2022-10-31T00:51:11;100004.99;;;16.41;35.29
65013;BME280;51715;39.432;-77.518;2022-10-31T00:53:40;100002.13;;;15.84;36.06
65013;BME280;51715;39.432;-77.518;2022-10-31T00:56:09;99994.33;;;16.01;35.60
65013;BME280;51715;39.432;-77.518;2022-10-31T00:58:38;99991.92;;;16.12;35.47
65013;BME280;51715;39.432;-77.518;2022-10-31T01:01:07;99989.88;;;15.79;36.34
65013;BME280;51715;39.432;-77.518;2022-10-31T01:03:36;99984.50;;;15.86;36.23
65013;BME280;51715;39.432;-77.518;2022-10-31T01:06:08;99986.23;;;15.99;36.28
65013;BME280;51715;39.432;-77.518;2022-10-31T01:08:37;99985.59;;;16.00;36.45
65013;BME280;51715;39.432;-77.518;2022-10-31T01:11:08;99985.38;;;16.21;36.60
65013;BME280;51715;39.432;-77.518;2022-10-31T01:13:38;99976.66;;;15.99;36.68
65013;BME280;51715;39.432;-77.518;2022-10-31T01:16:10;99972.14;;;16.05;37.32
65013;BME280;51715;39.432;-77.518;2022-10-31T01:18:39;99977.50;;;15.92;37.10
65013;BME280;51715;39.432;-77.518;2022-10-31T01:21:08;99977.07;;;15.79;37.81
65013;BME280;51715;39.432;-77.518;2022-10-31T01:23:38;99981.45;;;15.78;38.39
65013;BME280;51715;39.432;-77.518;2022-10-31T01:26:12;99979.53;;;15.64;38.46
65013;BME280;51715;39.432;-77.518;2022-10-31T01:28:45;99987.99;;;15.13;39.31
65013;BME280;51715;39.432;-77.518;2022-10-31T01:31:15;99989.57;;;15.35;39.43
65013;BME280;51715;39.432;-77.518;2022-10-31T01:33:45;99991.62;;;14.90;39.86
65013;BME280;51715;39.432;-77.518;2022-10-31T01:36:15;99989.23;;;15.09;40.23
65013;BME280;51715;39.432;-77.518;2022-10-31T01:38:44;99993.95;;;15.55;39.52
65013;BME280;51715;39.432;-77.518;2022-10-31T01:41:16;99992.50;;;14.81;39.89
65013;BME280;51715;39.432;-77.518;2022-10-31T01:43:49;99996.10;;;14.91;39.87
65013;BME280;51715;39.432;-77.518;2022-10-31T01:46:21;99991.10;;;15.82;39.12
65013;BME280;51715;39.432;-77.518;2022-10-31T01:48:51;99987.38;;;15.25;39.31
65013;BME280;51715;39.432;-77.518;2022-10-31T01:51:23;99987.93;;;15.88;39.14
65013;BME280;51715;39.432;-77.518;2022-10-31T01:53:57;99987.37;;;15.59;39.10
65013;BME280;51715;39.432;-77.518;2022-10-31T01:56:27;99988.62;;;15.25;39.29
65013;BME280;51715;39.432;-77.518;2022-10-31T01:58:56;99988.56;;;15.77;39.24
65013;BME280;51715;39.432;-77.518;2022-10-31T02:01:27;99987.02;;;14.73;40.11
65013;BME280;51715;39.432;-77.518;2022-10-31T02:03:56;99981.59;;;15.28;39.30
65013;BME280;51715;39.432;-77.518;2022-10-31T02:06:32;99986.77;;;15.42;39.09
65013;BME280;51715;39.432;-77.518;2022-10-31T02:09:05;99985.65;;;15.85;39.20
65013;BME280;51715;39.432;-77.518;2022-10-31T02:11:35;99983.63;;;15.77;39.25
65013;BME280;51715;39.432;-77.518;2022-10-31T02:14:04;99982.78;;;15.33;39.34
65013;BME280;51715;39.432;-77.518;2022-10-31T02:16:34;99985.95;;;15.98;39.04
65013;BME280;51715;39.432;-77.518;2022-10-31T02:19:04;99986.20;;;15.44;39.02
65013;BME280;51715;39.432;-77.518;2022-10-31T02:21:40;99980.56;;;15.55;39.13
65013;BME280;51715;39.432;-77.518;2022-10-31T02:24:34;99981.85;;;15.55;39.41
65013;BME280;51715;39.432;-77.518;2022-10-31T02:27:21;99982.26;;;14.73;40.54
65013;BME280;51715;39.432;-77.518;2022-10-31T02:30:05;99981.06;;;15.42;39.78
65013;BME280;51715;39.432;-77.518;2022-10-31T02:32:44;99984.13;;;15.47;39.67
65013;BME280;51715;39.432;-77.518;2022-10-31T02:35:24;99984.67;;;15.47;39.35
65013;BME280;51715;39.432;-77.518;2022-10-31T02:38:04;99986.20;;;15.90;39.03
65013;BME280;51715;39.432;-77.518;2022-10-31T02:40:38;99978.06;;;15.72;38.82
65013;BME280;51715;39.432;-77.518;2022-10-31T02:43:17;99978.05;;;15.94;38.92
65013;BME280;51715;39.432;-77.518;2022-10-31T02:45:50;99973.86;;;15.36;39.36
65013;BME280;51715;39.432;-77.518;2022-10-31T02:48:27;99978.17;;;15.71;39.63
65013;BME280;51715;39.432;-77.518;2022-10-31T02:50:58;99980.62;;;15.50;39.93
65013;BME280;51715;39.432;-77.518;2022-10-31T02:53:32;99978.43;;;15.45;39.53
65013;BME280;51715;39.432;-77.518;2022-10-31T02:56:05;99976.29;;;15.34;40.20
65013;BME280;51715;39.432;-77.518;2022-10-31T02:58:37;99967.38;;;15.51;40.04
65013;BME280;51715;39.432;-77.518;2022-10-31T03:01:20;99966.60;;;15.60;39.71
65013;BME280;51715;39.432;-77.518;2022-10-31T03:04:02;99967.48;;;15.55;39.88
65013;BME280;51715;39.432;-77.518;2022-10-31T03:06:37;99967.98;;;15.48;39.51
65013;BME280;51715;39.432;-77.518;2022-10-31T03:09:14;99969.04;;;15.73;39.60
65013;BME280;51715;39.432;-77.518;2022-10-31T03:11:56;99966.98;;;15.45;40.01
65013;BME280;51715;39.432;-77.518;2022-10-31T03:14:30;99965.43;;;15.21;40.16
65013;BME280;51715;39.432;-77.518;2022-10-31T03:17:04;99958.84;;;15.56;39.58
65013;BME280;51715;39.432;-77.518;2022-10-31T03:19:38;99958.25;;;15.26;39.70
65013;BME280;51715;39.432;-77.518;2022-10-31T03:22:10;99947.83;;;15.82;39.13
65013;BME280;51715;39.432;-77.518;2022-10-31T03:24:42;99944.02;;;15.92;39.09
65013;BME280;51715;39.432;-77.518;2022-10-31T03:27:14;99939.22;;;15.72;39.22
65013;BME280;51715;39.432;-77.518;2022-10-31T03:29:45;99939.74;;;15.41;40.47
65013;BME280;51715;39.432;-77.518;2022-10-31T03:32:19;99939.67;;;15.55;39.84
65013;BME280;51715;39.432;-77.518;2022-10-31T03:34:53;99928.40;;;15.84;39.27
65013;BME280;51715;39.432;-77.518;2022-10-31T03:37:27;99921.65;;;15.86;39.88
65013;BME280;51715;39.432;-77.518;2022-10-31T03:39:58;99909.82;;;15.58;39.32
65013;BME280;51715;39.432;-77.518;2022-10-31T03:42:31;99912.00;;;15.56;39.46
65013;BME280;51715;39.432;-77.518;2022-10-31T03:45:05;99907.34;;;15.61;39.54
65013;BME280;51715;39.432;-77.518;2022-10-31T03:47:36;99912.02;;;15.78;39.02
65013;BME280;51715;39.432;-77.518;2022-10-31T03:50:07;99915.24;;;15.74;39.01
65013;BME280;51715;39.432;-77.518;2022-10-31T03:52:39;99922.10;;;15.78;38.86
65013;BME280;51715;39.432;-77.518;2022-10-31T03:55:13;99928.08;;;15.78;38.84
65013;BME280;51715;39.432;-77.518;2022-10-31T03:57:48;99932.30;;;15.83;38.74
65013;BME280;51715;39.432;-77.518;2022-10-31T04:04:05;99941.25;;;15.96;37.65
65013;BME280;51715;39.432;-77.518;2022-10-31T04:06:35;99934.57;;;15.97;37.49
65013;BME280;51715;39.432;-77.518;2022-10-31T04:09:06;99933.55;;;16.13;37.75
65013;BME280;51715;39.432;-77.518;2022-10-31T04:11:40;99938.03;;;16.31;37.88
65013;BME280;51715;39.432;-77.518;2022-10-31T04:14:11;99942.55;;;16.25;38.64
65013;BME280;51715;39.432;-77.518;2022-10-31T04:16:41;99942.04;;;15.79;38.75
65013;BME280;51715;39.432;-77.518;2022-10-31T04:19:10;99938.00;;;15.63;38.83
65013;BME280;51715;39.432;-77.518;2022-10-31T04:21:38;99937.46;;;15.78;39.18
65013;BME280;51715;39.432;-77.518;2022-10-31T04:24:07;99938.10;;;15.31;39.75
65013;BME280;51715;39.432;-77.518;2022-10-31T04:26:35;99940.19;;;15.32;39.85
65013;BME280;51715;39.432;-77.518;2022-10-31T04:29:04;99937.94;;;15.28;39.84
65013;BME280;51715;39.432;-77.518;2022-10-31T04:31:33;99944.60;;;15.44;39.92
65013;BME280;51715;39.432;-77.518;2022-10-31T04:34:00;99941.80;;;15.42;39.90
65013;BME280;51715;39.432;-77.518;2022-10-31T04:36:28;99934.52;;;15.28;39.89
65013;BME280;51715;39.432;-77.518;2022-10-31T04:38:56;99930.82;;;15.22;40.34
65013;BME280;51715;39.432;-77.518;2022-10-31T04:41:24;99926.39;;;14.89;40.69
65013;BME280;51715;39.432;-77.518;2022-10-31T04:43:52;99919.73;;;14.83;40.65
65013;BME280;51715;39.432;-77.518;2022-10-31T04:46:21;99916.80;;;14.96;40.98
65013;BME280;51715;39.432;-77.518;2022-10-31T04:48:49;99911.64;;;14.57;41.27
65013;BME280;51715;39.432;-77.518;2022-10-31T04:51:18;99908.96;;;14.42;41.10
65013;BME280;51715;39.432;-77.518;2022-10-31T04:53:46;99906.94;;;14.45;40.86
65013;BME280;51715;39.432;-77.518;2022-10-31T04:56:14;99902.91;;;14.48;40.61
65013;BME280;51715;39.432;-77.518;2022-10-31T04:58:43;99896.09;;;14.55;40.67
65013;BME280;51715;39.432;-77.518;2022-10-31T05:01:11;99890.96;;;14.59;40.55
65013;BME280;51715;39.432;-77.518;2022-10-31T05:03:39;99888.06;;;14.81;40.77
65013;BME280;51715;39.432;-77.518;2022-10-31T05:06:08;99884.41;;;14.32;41.32
65013;BME280;51715;39.432;-77.518;2022-10-31T05:08:36;99878.94;;;14.50;41.34
65013;BME280;51715;39.432;-77.518;2022-10-31T05:11:04;99875.64;;;14.37;41.63
65013;BME280;51715;39.432;-77.518;2022-10-31T05:13:34;99872.07;;;14.46;42.03
65013;BME280;51715;39.432;-77.518;2022-10-31T05:16:02;99867.16;;;14.54;41.81
65013;BME280;51715;39.432;-77.518;2022-10-31T05:18:31;99865.64;;;14.41;41.66
65013;BME280;51715;39.432;-77.518;2022-10-31T05:20:59;99854.79;;;14.47;41.46
65013;BME280;51715;39.432;-77.518;2022-10-31T05:23:27;99844.81;;;14.23;41.41
65013;BME280;51715;39.432;-77.518;2022-10-31T05:25:55;99848.08;;;14.32;41.72
65013;BME280;51715;39.432;-77.518;2022-10-31T05:28:23;99846.55;;;14.12;42.14
65013;BME280;51715;39.432;-77.518;2022-10-31T05:30:51;99844.15;;;14.18;42.07
65013;BME280;51715;39.432;-77.518;2022-10-31T05:33:19;99837.23;;;14.30;41.72
65013;BME280;51715;39.432;-77.518;2022-10-31T05:35:47;99824.81;;;14.17;41.73
65013;BME280;51715;39.432;-77.518;2022-10-31T05:38:16;99818.36;;;14.36;41.84
65013;BME280;51715;39.432;-77.518;2022-10-31T05:40:44;99823.49;;;14.51;42.20
65013;BME280;51715;39.432;-77.518;2022-10-31T05:43:12;99822.46;;;14.04;42.24
65013;BME280;51715;39.432;-77.518;2022-10-31T05:45:40;99816.88;;;14.37;41.92
65013;BME280;51715;39.432;-77.518;2022-10-31T05:48:12;99818.04;;;14.23;41.66
65013;BME280;51715;39.432;-77.518;2022-10-31T05:50:41;99816.34;;;14.52;41.40
65013;BME280;51715;39.432;-77.518;2022-10-31T05:53:09;99807.79;;;14.66;41.25
65013;BME280;51715;39.432;-77.518;2022-10-31T05:55:37;99803.06;;;14.67;41.02
65013;BME280;51715;39.432;-77.518;2022-10-31T05:58:05;99803.02;;;14.72;41.02
65013;BME280;51715;39.432;-77.518;2022-10-31T06:00:34;99797.62;;;14.74;40.97
65013;BME280;51715;39.432;-77.518;2022-10-31T06:03:03;99796.37;;;14.76;41.04
65013;BME280;51715;39.432;-77.518;2022-10-31T06:05:32;99798.40;;;14.69;41.06
65013;BME280;51715;39.432;-77.518;2022-10-31T06:08:01;99797.97;;;14.99;40.94
65013;BME280;51715;39.432;-77.518;2022-10-31T06:10:30;99803.76;;;14.62;41.30
65013;BME280;51715;39.432;-77.518;2022-10-31T06:12:58;99806.11;;;14.59;41.47
65013;BME280;51715;39.432;-77.518;2022-10-31T06:15:26;99809.72;;;14.66;41.35
65013;BME280;51715;39.432;-77.518;2022-10-31T06:17:59;99808.70;;;14.69;41.22
65013;BME280;51715;39.432;-77.518;2022-10-31T06:20:28;99813.08;;;14.55;41.08
65013;BME280;51715;39.432;-77.518;2022-10-31T06:22:57;99822.43;;;14.58;40.82
65013;BME280;51715;39.432;-77.518;2022-10-31T06:25:25;99824.56;;;14.84;40.67
65013;BME280;51715;39.432;-77.518;2022-10-31T06:27:53;99811.96;;;14.85;40.57
65013;BME280;51715;39.432;-77.518;2022-10-31T06:30:22;99811.12;;;14.88;40.87
65013;BME280;51715;39.432;-77.518;2022-10-31T06:32:49;99807.02;;;14.88;40.85
65013;BME280;51715;39.432;-77.518;2022-10-31T06:35:18;99806.79;;;14.64;40.61
65013;BME280;51715;39.432;-77.518;2022-10-31T06:37:51;99805.50;;;14.85;40.44
65013;BME280;51715;39.432;-77.518;2022-10-31T06:40:20;99812.72;;;14.62;40.30
65013;BME280;51715;39.432;-77.518;2022-10-31T06:42:57;99812.01;;;14.61;40.33
65013;BME280;51715;39.432;-77.518;2022-10-31T06:45:25;99814.43;;;14.48;40.23
65013;BME280;51715;39.432;-77.518;2022-10-31T06:47:53;99821.99;;;14.60;40.71
65013;BME280;51715;39.432;-77.518;2022-10-31T06:50:23;99817.52;;;14.77;40.45
65013;BME280;51715;39.432;-77.518;2022-10-31T06:52:52;99816.22;;;14.70;40.23
65013;BME280;51715;39.432;-77.518;2022-10-31T06:55:20;99815.78;;;14.15;40.47
65013;BME280;51715;39.432;-77.518;2022-10-31T06:57:50;99817.30;;;14.23;40.64
65013;BME280;51715;39.432;-77.518;2022-10-31T07:00:19;99817.66;;;13.98;41.40
65013;BME280;51715;39.432;-77.518;2022-10-31T07:02:54;99820.53;;;14.12;41.73
65013;BME280;51715;39.432;-77.518;2022-10-31T07:05:23;99816.67;;;14.09;41.39
65013;BME280;51715;39.432;-77.518;2022-10-31T07:07:53;99813.63;;;14.07;41.21
65013;BME280;51715;39.432;-77.518;2022-10-31T07:10:21;99809.22;;;13.95;41.34
65013;BME280;51715;39.432;-77.518;2022-10-31T07:12:54;99809.07;;;13.86;41.60
65013;BME280;51715;39.432;-77.518;2022-10-31T07:15:22;99814.51;;;13.75;41.92
65013;BME280;51715;39.432;-77.518;2022-10-31T07:17:50;99818.26;;;13.68;41.66
65013;BME280;51715;39.432;-77.518;2022-10-31T07:20:19;99816.64;;;13.83;41.55
65013;BME280;51715;39.432;-77.518;2022-10-31T07:22:48;99809.76;;;13.86;41.45
65013;BME280;51715;39.432;-77.518;2022-10-31T07:25:17;99814.87;;;13.81;41.70
65013;BME280;51715;39.432;-77.518;2022-10-31T07:27:44;99820.50;;;13.58;42.14
65013;BME280;51715;39.432;-77.518;2022-10-31T07:30:14;99820.00;;;13.54;42.59
65013;BME280;51715;39.432;-77.518;2022-10-31T07:32:44;99811.00;;;13.01;42.40
65013;BME280;51715;39.432;-77.518;2022-10-31T07:35:15;99814.92;;;13.34;42.26
65013;BME280;51715;39.432;-77.518;2022-10-31T07:37:44;99821.58;;;13.17;42.74
65013;BME280;51715;39.432;-77.518;2022-10-31T07:40:13;99814.50;;;13.16;42.67
65013;BME280;51715;39.432;-77.518;2022-10-31T07:42:42;99822.38;;;13.44;42.56
65013;BME280;51715;39.432;-77.518;2022-10-31T07:45:15;99816.69;;;13.14;42.39
65013;BME280;51715;39.432;-77.518;2022-10-31T07:47:46;99807.09;;;13.05;41.99
65013;BME280;51715;39.432;-77.518;2022-10-31T07:50:17;99807.16;;;13.06;42.06
65013;BME280;51715;39.432;-77.518;2022-10-31T07:52:46;99804.53;;;13.21;42.38
65013;BME280;51715;39.432;-77.518;2022-10-31T07:55:15;99797.74;;;13.15;42.60
65013;BME280;51715;39.432;-77.518;2022-10-31T07:57:44;99785.94;;;13.21;42.09
65013;BME280;51715;39.432;-77.518;2022-10-31T08:00:14;99781.22;;;13.09;42.59
65013;BME280;51715;39.432;-77.518;2022-10-31T08:02:41;99778.14;;;12.85;42.86
65013;BME280;51715;39.432;-77.518;2022-10-31T08:05:10;99781.72;;;12.97;42.96
65013;BME280;51715;39.432;-77.518;2022-10-31T08:07:38;99779.99;;;12.79;43.41
65013;BME280;51715;39.432;-77.518;2022-10-31T08:10:07;99778.74;;;12.60;43.41
65013;BME280;51715;39.432;-77.518;2022-10-31T08:12:35;99770.88;;;12.66;43.32
65013;BME280;51715;39.432;-77.518;2022-10-31T08:15:04;99767.97;;;12.69;43.08
65013;BME280;51715;39.432;-77.518;2022-10-31T08:17:36;99767.92;;;12.70;43.10
65013;BME280;51715;39.432;-77.518;2022-10-31T08:20:05;99767.01;;;13.10;43.14
65013;BME280;51715;39.432;-77.518;2022-10-31T08:22:34;99770.93;;;12.72;42.96
65013;BME280;51715;39.432;-77.518;2022-10-31T08:25:02;99770.45;;;12.75;42.56
65013;BME280;51715;39.432;-77.518;2022-10-31T08:27:30;99777.01;;;12.77;42.30
65013;BME280;51715;39.432;-77.518;2022-10-31T08:29:59;99781.01;;;12.73;42.28
65013;BME280;51715;39.432;-77.518;2022-10-31T08:32:27;99777.05;;;12.70;42.37
65013;BME280;51715;39.432;-77.518;2022-10-31T08:34:55;99779.07;;;12.70;42.64
65013;BME280;51715;39.432;-77.518;2022-10-31T08:37:23;99773.94;;;12.67;42.25
65013;BME280;51715;39.432;-77.518;2022-10-31T08:39:51;99772.06;;;12.86;42.33
65013;BME280;51715;39.432;-77.518;2022-10-31T08:42:20;99771.82;;;12.63;42.09
65013;BME280;51715;39.432;-77.518;2022-10-31T08:44:48;99771.77;;;12.87;42.11
65013;BME280;51715;39.432;-77.518;2022-10-31T08:47:16;99773.85;;;12.80;42.12
65013;BME280;51715;39.432;-77.518;2022-10-31T08:49:44;99774.29;;;12.58;42.05
65013;BME280;51715;39.432;-77.518;2022-10-31T08:52:12;99770.78;;;12.64;41.68
65013;BME280;51715;39.432;-77.518;2022-10-31T08:54:40;99781.20;;;12.88;41.91
65013;BME280;51715;39.432;-77.518;2022-10-31T08:57:08;99781.18;;;12.67;41.55
65013;BME280;51715;39.432;-77.518;2022-10-31T08:59:36;99785.82;;;12.69;41.30
65013;BME280;51715;39.432;-77.518;2022-10-31T09:02:07;99783.92;;;12.43;41.17
65013;BME280;51715;39.432;-77.518;2022-10-31T09:04:35;99799.67;;;12.59;41.48
65013;BME280;51715;39.432;-77.518;2022-10-31T09:07:03;99801.19;;;12.43;41.44
65013;BME280;51715;39.432;-77.518;2022-10-31T09:09:32;99805.92;;;12.40;41.38
65013;BME280;51715;39.432;-77.518;2022-10-31T09:12:00;99788.07;;;12.82;41.13
65013;BME280;51715;39.432;-77.518;2022-10-31T09:14:28;99784.70;;;12.41;42.00
65013;BME280;51715;39.432;-77.518;2022-10-31T09:16:56;99772.36;;;12.03;42.56
65013;BME280;51715;39.432;-77.518;2022-10-31T09:19:25;99761.45;;;12.19;42.76
65013;BME280;51715;39.432;-77.518;2022-10-31T09:21:53;99736.90;;;12.23;42.53
65013;BME280;51715;39.432;-77.518;2022-10-31T09:24:21;99732.95;;;11.96;43.03
65013;BME280;51715;39.432;-77.518;2022-10-31T09:26:49;99739.90;;;12.14;43.81
65013;BME280;51715;39.432;-77.518;2022-10-31T09:29:17;99757.68;;;12.20;43.78
65013;BME280;51715;39.432;-77.518;2022-10-31T09:31:45;99780.36;;;12.04;43.48
65013;BME280;51715;39.432;-77.518;2022-10-31T09:34:13;99793.09;;;11.89;43.36
65013;BME280;51715;39.432;-77.518;2022-10-31T09:36:42;99802.90;;;11.97;43.02
65013;BME280;51715;39.432;-77.518;2022-10-31T09:39:10;99801.61;;;12.04;42.73
65013;BME280;51715;39.432;-77.518;2022-10-31T09:41:57;99804.97;;;12.23;42.47
65013;BME280;51715;39.432;-77.518;2022-10-31T09:44:39;99792.30;;;12.23;42.19
65013;BME280;51715;39.432;-77.518;2022-10-31T09:47:17;99803.87;;;11.89;42.43
65013;BME280;51715;39.432;-77.518;2022-10-31T09:50:02;99812.89;;;12.39;42.59
65013;BME280;51715;39.432;-77.518;2022-10-31T09:52:35;99809.97;;;12.37;42.55
65013;BME280;51715;39.432;-77.518;2022-10-31T09:55:12;99799.15;;;12.17;42.55
65013;BME280;51715;39.432;-77.518;2022-10-31T09:57:42;99794.38;;;12.19;42.63
65013;BME280;51715;39.432;-77.518;2022-10-31T10:00:17;99784.22;;;12.21;42.85
65013;BME280;51715;39.432;-77.518;2022-10-31T10:02:51;99784.19;;;12.30;42.76
65013;BME280;51715;39.432;-77.518;2022-10-31T10:05:26;99792.89;;;12.11;42.92
65013;BME280;51715;39.432;-77.518;2022-10-31T10:08:02;99789.44;;;12.29;43.81
65013;BME280;51715;39.432;-77.518;2022-10-31T10:10:42;99771.04;;;12.14;43.30
65013;BME280;51715;39.432;-77.518;2022-10-31T10:13:32;99769.14;;;12.31;43.20
65013;BME280;51715;39.432;-77.518;2022-10-31T10:16:14;99786.64;;;12.60;43.20
65013;BME280;51715;39.432;-77.518;2022-10-31T10:18:57;99783.77;;;12.68;42.89
65013;BME280;51715;39.432;-77.518;2022-10-31T10:21:38;99792.95;;;12.26;42.96
65013;BME280;51715;39.432;-77.518;2022-10-31T10:24:19;99787.27;;;12.27;43.15
65013;BME280;51715;39.432;-77.518;2022-10-31T10:26:53;99774.50;;;12.62;42.88
65013;BME280;51715;39.432;-77.518;2022-10-31T10:29:32;99769.32;;;12.68;43.41
65013;BME280;51715;39.432;-77.518;2022-10-31T10:32:08;99758.90;;;12.63;43.69
65013;BME280;51715;39.432;-77.518;2022-10-31T10:34:43;99748.49;;;12.21;44.00
65013;BME280;51715;39.432;-77.518;2022-10-31T10:37:23;99747.55;;;12.60;43.92
65013;BME280;51715;39.432;-77.518;2022-10-31T10:39:55;99779.71;;;12.44;44.49
65013;BME280;51715;39.432;-77.518;2022-10-31T10:42:28;99764.22;;;12.62;44.25
65013;BME280;51715;39.432;-77.518;2022-10-31T10:44:56;99769.06;;;12.70;44.21
65013;BME280;51715;39.432;-77.518;2022-10-31T10:47:26;99775.60;;;12.51;44.10
65013;BME280;51715;39.432;-77.518;2022-10-31T10:50:01;99771.22;;;12.90;43.72
65013;BME280;51715;39.432;-77.518;2022-10-31T10:52:39;99776.91;;;13.02;43.48
65013;BME280;51715;39.432;-77.518;2022-10-31T10:55:16;99768.90;;;13.12;43.24
65013;BME280;51715;39.432;-77.518;2022-10-31T10:57:55;99771.89;;;13.09;43.31
65013;BME280;51715;39.432;-77.518;2022-10-31T11:00:25;99770.60;;;13.11;43.16
65013;BME280;51715;39.432;-77.518;2022-10-31T11:02:54;99756.46;;;12.94;42.82
65013;BME280;51715;39.432;-77.518;2022-10-31T11:05:27;99773.81;;;13.26;43.14
65013;BME280;51715;39.432;-77.518;2022-10-31T11:07:56;99770.34;;;13.03;43.10
65013;BME280;51715;39.432;-77.518;2022-10-31T11:10:26;99777.09;;;13.33;42.98
65013;BME280;51715;39.432;-77.518;2022-10-31T11:13:03;99758.67;;;13.08;42.78
65013;BME280;51715;39.432;-77.518;2022-10-31T11:15:36;99748.87;;;13.36;43.07
65013;BME280;51715;39.432;-77.518;2022-10-31T11:18:05;99752.45;;;13.16;43.34
65013;BME280;51715;39.432;-77.518;2022-10-31T11:20:35;99758.96;;;13.37;43.84
65013;BME280;51715;39.432;-77.518;2022-10-31T11:23:18;99755.05;;;13.46;43.67
65013;BME280;51715;39.432;-77.518;2022-10-31T11:25:51;99744.13;;;13.23;43.56
65013;BME280;51715;39.432;-77.518;2022-10-31T11:28:21;99744.66;;;13.21;43.85
65013;BME280;51715;39.432;-77.518;2022-10-31T11:30:51;99745.24;;;13.11;43.58
65013;BME280;51715;39.432;-77.518;2022-10-31T11:33:25;99742.48;;;13.43;43.52
65013;BME280;51715;39.432;-77.518;2022-10-31T11:35:56;99743.77;;;13.12;44.57
65013;BME280;51715;39.432;-77.518;2022-10-31T11:38:29;99750.10;;;13.12;44.22
65013;BME280;51715;39.432;-77.518;2022-10-31T11:41:03;99762.46;;;13.40;44.85
65013;BME280;51715;39.432;-77.518;2022-10-31T11:43:33;99763.06;;;13.28;44.87
65013;BME280;51715;39.432;-77.518;2022-10-31T11:46:09;99784.72;;;13.42;44.77
65013;BME280;51715;39.432;-77.518;2022-10-31T11:48:40;99809.44;;;13.36;45.00
65013;BME280;51715;39.432;-77.518;2022-10-31T11:51:21;99825.43;;;13.58;45.05
65013;BME280;51715;39.432;-77.518;2022-10-31T11:53:52;99817.40;;;13.52;44.84
65013;BME280;51715;39.432;-77.518;2022-10-31T11:56:21;99822.64;;;13.90;44.67
65013;BME280;51715;39.432;-77.518;2022-10-31T11:58:56;99819.17;;;13.73;44.16
65013;BME280;51715;39.432;-77.518;2022-10-31T12:01:27;99827.45;;;13.98;43.78
65013;BME280;51715;39.432;-77.518;2022-10-31T12:04:04;99842.06;;;13.86;43.90
65013;BME280;51715;39.432;-77.518;2022-10-31T12:06:35;99835.86;;;13.86;43.88
65013;BME280;51715;39.432;-77.518;2022-10-31T12:09:17;99834.60;;;13.83;43.54
65013;BME280;51715;39.432;-77.518;2022-10-31T12:11:57;99825.99;;;13.77;43.36
65013;BME280;51715;39.432;-77.518;2022-10-31T12:14:35;99830.33;;;13.68;43.38
65013;BME280;51715;39.432;-77.518;2022-10-31T12:17:11;99828.07;;;13.63;43.45
65013;BME280;51715;39.432;-77.518;2022-10-31T12:19:44;99828.32;;;14.11;43.53
65013;BME280;51715;39.432;-77.518;2022-10-31T12:22:23;99823.79;;;13.69;43.49
65013;BME280;51715;39.432;-77.518;2022-10-31T12:25:26;99822.67;;;13.66;43.75
65013;BME280;51715;39.432;-77.518;2022-10-31T12:28:06;99820.46;;;13.84;44.17
65013;BME280;51715;39.432;-77.518;2022-10-31T12:30:50;99818.52;;;13.76;44.58
65013;BME280;51715;39.432;-77.518;2022-10-31T12:33:32;99813.35;;;13.45;45.00
65013;BME280;51715;39.432;-77.518;2022-10-31T12:36:18;99805.21;;;13.94;45.23
65013;BME280;51715;39.432;-77.518;2022-10-31T12:39:02;99805.77;;;14.19;45.37
65013;BME280;51715;39.432;-77.518;2022-10-31T12:41:46;99800.88;;;14.37;45.75
65013;BME280;51715;39.432;-77.518;2022-10-31T12:44:30;99797.35;;;14.43;45.91
65013;BME280;51715;39.432;-77.518;2022-10-31T12:47:17;99800.97;;;14.65;45.76
65013;BME280;51715;39.432;-77.518;2022-10-31T12:49:56;99801.76;;;14.72;45.20
65013;BME280;51715;39.432;-77.518;2022-10-31T12:52:39;99808.48;;;14.83;45.25
65013;BME280;51715;39.432;-77.518;2022-10-31T12:55:25;99810.46;;;14.88;45.69
65013;BME280;51715;39.432;-77.518;2022-10-31T12:58:00;99813.10;;;15.22;45.55
65013;BME280;51715;39.432;-77.518;2022-10-31T13:00:32;99823.07;;;15.33;45.33
65013;BME280;51715;39.432;-77.518;2022-10-31T13:03:16;99809.97;;;15.37;45.22
65013;BME280;51715;39.432;-77.518;2022-10-31T13:05:48;99803.91;;;15.71;45.01
65013;BME280;51715;39.432;-77.518;2022-10-31T13:08:20;99799.92;;;15.79;44.76